createdAt,value
2019-06-10T04:02:28.516Z,18.50
2019-06-10T04:05:02.580Z,18.50
2019-06-10T04:07:34.244Z,18.50
2019-06-10T04:10:05.997Z,18.50
2019-06-10T04:12:36.986Z,18.50
2019-06-10T04:15:07.831Z,18.50
2019-06-10T04:17:37.869Z,18.50
2019-06-10T04:20:12.369Z,18.50
2019-06-10T04:22:44.467Z,18.50
2019-06-10T04:25:15.489Z,18.50
2019-06-10T04:27:44.921Z,18.50
2019-06-10T04:30:16.702Z,18.50
2019-06-10T04:32:54.430Z,18.50
2019-06-10T04:35:26.518Z,18.50
2019-06-10T04:38:02.392Z,18.60
2019-06-10T04:40:33.700Z,18.60
2019-06-10T04:43:04.703Z,18.70
2019-06-10T04:45:39.294Z,18.70
2019-06-10T04:48:12.448Z,18.80
2019-06-10T04:50:46.355Z,18.80
2019-06-10T04:53:17.046Z,18.80
2019-06-10T04:55:47.939Z,18.90
2019-06-10T04:58:19.220Z,18.90
2019-06-10T05:00:48.444Z,18.90
2019-06-10T05:03:21.522Z,18.90
2019-06-10T05:05:53.469Z,18.90
2019-06-10T05:08:46.239Z,18.90
2019-06-10T05:11:17.281Z,18.90
2019-06-10T05:13:48.390Z,18.90
2019-06-10T05:16:17.801Z,18.90
2019-06-10T05:18:52.417Z,18.90
2019-06-10T05:21:25.101Z,18.90
2019-06-10T05:23:59.776Z,18.80
2019-06-10T05:26:33.631Z,18.80
2019-06-10T05:29:05.698Z,18.80
2019-06-10T05:31:43.869Z,18.80
2019-06-10T05:34:17.934Z,18.80
2019-06-10T05:36:52.534Z,18.90
2019-06-10T05:39:32.417Z,18.90
2019-06-10T05:42:04.005Z,18.90
2019-06-10T05:44:39.533Z,18.90
2019-06-10T05:47:18.498Z,18.90
2019-06-10T05:49:52.797Z,19.00
2019-06-10T05:52:24.327Z,19.10
2019-06-10T05:54:55.726Z,19.10
2019-06-10T05:57:27.402Z,19.20
2019-06-10T05:59:58.580Z,19.30
2019-06-10T06:02:29.833Z,19.30
2019-06-10T06:05:02.551Z,19.30
2019-06-10T06:07:35.636Z,19.40
2019-06-10T06:10:08.512Z,19.50
2019-06-10T06:12:42.253Z,19.50
2019-06-10T06:15:17.298Z,19.60
2019-06-10T06:52:07.026Z,20.10
2019-06-10T06:54:54.306Z,20.10
2019-06-10T06:57:30.740Z,20.10
2019-06-10T07:00:59.287Z,20.20
2019-06-10T07:03:16.707Z,20.20
2019-06-10T07:06:13.056Z,20.30
2019-06-10T07:09:04.190Z,20.50
2019-06-10T07:14:36.814Z,20.60
2019-06-10T07:18:19.675Z,20.70
2019-06-10T07:21:13.211Z,20.60
2019-06-10T07:23:53.037Z,20.60
2019-06-10T07:26:54.619Z,20.60
2019-06-10T07:36:14.362Z,20.90
2019-06-10T07:38:48.976Z,20.90
2019-06-10T07:41:32.795Z,21.00
2019-06-10T07:44:04.023Z,20.90
2019-06-10T07:46:36.261Z,20.90
2019-06-10T07:49:07.429Z,20.90
2019-06-10T07:51:39.365Z,20.80
2019-06-10T07:54:12.461Z,20.90
2019-06-10T07:56:50.045Z,20.80
2019-06-10T07:59:16.379Z,20.80
2019-06-10T08:01:51.364Z,20.70
2019-06-10T08:04:22.514Z,20.70
2019-06-10T08:06:53.094Z,20.80
2019-06-10T08:09:24.565Z,20.80
2019-06-10T08:11:56.778Z,20.90
2019-06-10T08:14:28.043Z,20.90
2019-06-10T08:16:58.884Z,20.90
2019-06-10T08:19:34.984Z,21.00
2019-06-10T08:22:02.948Z,21.00
2019-06-10T08:24:35.330Z,20.90
2019-06-10T08:27:06.465Z,20.90
2019-06-10T08:29:38.406Z,20.90
2019-06-10T08:32:09.909Z,21.00
2019-06-10T08:34:44.569Z,20.90
2019-06-10T11:10:56.980Z,25.30
2019-06-10T11:13:25.649Z,25.40
2019-06-10T11:15:56.427Z,25.50
2019-06-10T11:18:25.090Z,25.60
2019-06-10T11:20:54.169Z,25.60
2019-06-10T11:23:23.166Z,25.70
2019-06-10T11:25:56.592Z,26.00
2019-06-10T11:28:23.561Z,26.10
2019-06-10T11:30:55.426Z,26.30
2019-06-10T11:33:22.963Z,26.40
2019-06-10T11:35:55.094Z,26.40
2019-06-10T11:38:23.483Z,26.40
2019-06-10T11:40:55.948Z,26.50
2019-06-10T11:43:22.596Z,26.40
2019-06-10T11:45:58.931Z,26.40
2019-06-10T11:49:30.821Z,26.40
2019-06-10T11:51:59.868Z,26.40
2019-06-10T11:54:32.560Z,26.40
2019-06-10T11:57:00.320Z,26.50
2019-06-10T11:59:29.032Z,26.70
2019-06-10T12:02:01.703Z,26.90
2019-06-10T12:04:27.389Z,27.20
2019-06-10T12:06:57.149Z,27.30
2019-06-10T12:09:26.177Z,27.10
2019-06-10T12:12:00.886Z,27.00
2019-06-10T12:14:27.185Z,26.90
2019-06-10T12:19:27.172Z,27.00
2019-06-10T12:21:59.764Z,27.00
2019-06-10T12:24:26.630Z,27.00
2019-06-10T12:26:58.277Z,26.90
2019-06-10T12:29:24.881Z,27.00
2019-06-10T12:31:57.832Z,27.00
2019-06-10T12:34:23.144Z,27.10
2019-06-10T12:36:56.222Z,27.20
2019-06-10T12:39:22.948Z,27.50
2019-06-10T12:45:13.330Z,28.00
2019-06-10T12:47:42.518Z,28.10
2019-06-10T12:50:13.042Z,28.20
2019-06-10T12:52:41.342Z,28.20
2019-06-10T12:55:12.558Z,28.50
2019-06-10T12:57:42.855Z,28.30
2019-06-10T13:00:22.324Z,28.40
2019-06-10T13:02:42.711Z,28.50
2019-06-10T13:05:12.265Z,28.60
2019-06-10T13:07:43.382Z,28.80
2019-06-10T13:10:13.477Z,29.00
2019-06-10T13:12:42.974Z,29.40
2019-06-10T13:15:12.253Z,29.40
2019-06-10T13:17:43.792Z,29.40
2019-06-10T13:20:13.562Z,29.40
2019-06-10T13:22:43.222Z,29.50
2019-06-10T13:25:13.412Z,29.80
2019-06-10T13:27:42.863Z,29.90
2019-06-10T13:30:12.088Z,30.00
2019-06-10T13:32:43.281Z,30.10
2019-06-10T13:35:12.447Z,30.30
2019-06-10T13:37:42.917Z,30.50
2019-06-10T13:40:12.958Z,30.60
2019-06-10T13:42:42.397Z,30.50
2019-06-10T13:45:12.157Z,30.60
2019-06-10T13:47:43.029Z,30.70
2019-06-10T13:50:14.352Z,30.90
2019-06-10T13:52:42.768Z,30.90
2019-06-10T13:55:13.669Z,31.00
2019-06-10T13:57:44.701Z,31.20
2019-06-10T14:00:14.645Z,31.30
2019-06-10T14:02:43.986Z,31.50
2019-06-10T14:05:18.214Z,31.40
2019-06-10T14:07:44.287Z,31.20
2019-06-10T14:10:18.010Z,31.10
2019-06-10T14:12:48.682Z,31.10
2019-06-10T14:15:16.970Z,31.40
2019-06-10T14:17:45.182Z,31.60
2019-06-10T14:20:16.354Z,31.70
2019-06-10T14:22:45.630Z,31.70
2019-06-10T14:25:16.885Z,31.70
2019-06-10T14:27:44.956Z,31.90
2019-06-10T14:30:15.481Z,32.10
2019-06-10T14:32:44.317Z,32.30
2019-06-10T14:35:16.264Z,32.60
2019-06-10T14:37:43.534Z,32.70
2019-06-10T14:40:20.557Z,32.60
2019-06-10T14:42:44.046Z,32.50
2019-06-10T14:45:32.697Z,32.80
2019-06-10T14:48:02.873Z,33.20
2019-06-10T14:50:32.491Z,33.60
2019-06-10T14:53:02.314Z,34.10
2019-06-10T14:55:34.039Z,34.30
2019-06-10T14:58:02.762Z,34.60
2019-06-10T15:00:33.293Z,34.80
2019-06-10T15:03:05.135Z,35.00
2019-06-10T15:05:32.440Z,34.90
2019-06-10T15:15:44.061Z,33.00
2019-06-10T15:18:17.523Z,32.10
2019-06-10T15:20:43.656Z,31.50
2019-06-10T15:23:16.444Z,31.20
2019-06-10T15:25:49.969Z,30.90
2019-06-10T15:28:15.941Z,30.60
2019-06-10T15:30:44.782Z,30.50
2019-06-10T15:33:16.495Z,30.40
2019-06-10T15:35:44.025Z,30.20
2019-06-10T15:38:15.675Z,30.10
2019-06-10T15:40:43.527Z,30.00
2019-06-10T15:43:13.719Z,30.10
2019-06-10T15:45:43.282Z,30.70
2019-06-10T15:48:15.573Z,31.80
2019-06-10T15:50:43.051Z,32.30
2019-06-10T15:53:13.958Z,33.00
2019-06-10T15:56:08.942Z,33.40
2019-06-10T15:58:14.416Z,33.10
2019-06-10T16:00:43.357Z,32.50
2019-06-10T16:03:14.270Z,32.10
2019-06-10T16:05:42.877Z,31.70
2019-06-10T16:08:15.567Z,31.60
2019-06-10T16:10:44.345Z,31.50
2019-06-10T16:13:14.447Z,31.30
2019-06-10T16:15:43.562Z,31.10
2019-06-10T16:18:13.660Z,30.80
2019-06-10T16:20:43.090Z,30.60
2019-06-10T16:23:12.199Z,30.50
2019-06-10T16:25:42.705Z,30.40
2019-06-10T16:28:12.847Z,30.20
2019-06-10T16:30:42.778Z,30.00
2019-06-10T16:33:13.067Z,29.90
2019-06-10T16:35:42.476Z,29.70
2019-06-10T16:38:12.690Z,29.50
2019-06-10T16:40:43.173Z,29.40
2019-06-10T16:43:12.318Z,29.30
2019-06-10T16:45:43.318Z,29.30
2019-06-10T16:48:13.043Z,29.20
2019-06-10T16:50:42.740Z,29.20
2019-06-10T16:53:13.655Z,29.00
2019-06-10T16:55:42.316Z,29.00
2019-06-10T16:58:13.012Z,28.90
2019-06-10T17:00:43.233Z,28.90
2019-06-10T17:03:12.926Z,28.80
2019-06-10T17:05:42.620Z,28.80
2019-06-10T17:08:12.679Z,28.60
2019-06-10T17:10:43.522Z,28.60
2019-06-10T17:13:14.417Z,28.50
2019-06-10T17:15:43.116Z,28.30
2019-06-10T17:18:49.247Z,28.20
2019-06-10T17:21:19.422Z,28.20
2019-06-10T17:23:48.566Z,28.00
2019-06-10T17:26:17.557Z,27.90
2019-06-10T17:28:48.035Z,27.80
2019-06-10T17:31:16.744Z,27.70
2019-06-10T17:33:45.441Z,27.60
2019-06-10T17:36:14.174Z,27.50
2019-06-10T17:38:43.637Z,27.40
2019-06-10T17:41:13.291Z,27.40
2019-06-10T17:43:42.875Z,27.30
2019-06-10T17:46:14.737Z,27.30
2019-06-10T17:48:43.433Z,27.20
2019-06-10T17:51:12.130Z,27.20
2019-06-10T17:53:42.711Z,27.20
2019-06-10T17:56:13.168Z,27.20
2019-06-10T17:58:53.404Z,27.20
2019-06-10T18:01:12.728Z,27.10
2019-06-10T18:03:42.895Z,27.00
2019-06-10T18:06:13.141Z,26.90
2019-06-10T18:08:41.810Z,26.80
2019-06-10T18:11:12.804Z,26.70
2019-06-10T18:13:42.867Z,26.70
2019-06-10T18:16:13.087Z,26.60
2019-06-10T18:18:42.558Z,26.60
2019-06-10T18:21:12.694Z,26.60
2019-06-10T18:23:43.492Z,26.40
2019-06-10T18:26:12.375Z,26.40
2019-06-10T18:28:59.920Z,26.30
2019-06-10T18:31:10.862Z,26.30
2019-06-10T18:33:39.656Z,26.40
2019-06-10T18:36:08.397Z,26.30
2019-06-10T18:38:37.402Z,26.30
2019-06-10T18:41:06.701Z,26.30
2019-06-10T18:43:36.832Z,26.20
2019-06-10T18:46:05.850Z,26.20
2019-06-10T18:48:37.673Z,26.20
2019-06-10T18:51:05.356Z,26.10
2019-06-10T18:53:36.142Z,26.00
2019-06-10T18:56:04.888Z,26.00
2019-06-10T18:58:35.895Z,25.90
2019-06-10T19:01:07.581Z,25.80
2019-06-10T19:03:36.246Z,25.70
2019-06-10T19:06:03.585Z,25.60
2019-06-10T19:08:35.557Z,25.50
2019-06-10T19:11:03.386Z,25.40
2019-06-10T19:13:34.393Z,25.40
2019-06-10T19:16:02.357Z,25.30
2019-06-10T19:18:31.896Z,25.30
2019-06-10T19:21:03.566Z,25.20
2019-06-10T19:23:30.424Z,25.10
2019-06-10T19:25:59.116Z,25.00
2019-06-10T19:28:28.340Z,24.90
2019-06-10T19:30:57.230Z,24.80
2019-06-10T19:33:26.303Z,24.80
2019-06-10T19:35:55.318Z,24.80
2019-06-10T19:38:24.148Z,24.80
2019-06-10T19:40:53.354Z,24.80
2019-06-10T19:43:22.507Z,24.70
2019-06-10T19:45:53.011Z,24.60
2019-06-10T19:48:22.015Z,24.60
2019-06-10T19:50:53.909Z,24.60
2019-06-10T19:53:22.521Z,24.60
2019-06-10T19:55:53.347Z,24.60
2019-06-10T19:58:23.242Z,24.50
